Latest Weather Observations for Stawell

IDV60801

Issued at 11:05 pm EST Sunday 20 April 2014 (issued every 30 minutes, with the page automatically refreshed every 10 minutes)

About weather observations | Map of weather stations | Latest weather observations for VIC | Other Formats
Station Details ID: 079105 Name: STAWELL AERODROME Lat: -37.07 Lon: 142.74 Height: 235.36 m
Data from the previous 72 hours. | See also: Recent months at Stawell
Date/Time
EST
Temp
°C
App
Temp
°C
Dew
Point
Rel
Hum
%
Delta-T
°C
Wind Press
QNH
hPa
Press
MSL
hPa
Rain
since 9 am
mm
Dir
 
Spd
km/h
Gust
km/h
Spd
kts
Gust
kts
20/11:00pm 12.8 10.7 5.7 62 3.4 NNE 6 7 3 4 1017.1 - 0.0
20/10:30pm 13.5 12.5 5.4 58 3.8 NNE 0 0 0 0 1017.2 - 0.0
20/10:00pm 14.5 12.4 5.6 55 4.3 NNE 6 7 3 4 1017.2 - 0.0
20/09:30pm 14.9 12.6 5.7 54 4.4 NE 7 9 4 5 1017.1 - 0.0
20/09:00pm 14.8 12.2 5.9 55 4.3 ENE 9 9 5 5 1016.9 1017.6 0.0
20/08:30pm 15.0 12.7 5.8 54 4.5 NE 7 9 4 5 1016.8 - 0.0
20/08:00pm 15.8 13.5 5.7 51 4.9 NE 7 7 4 4 1016.6 - 0.0
20/07:30pm 16.1 15.1 5.4 49 5.2 CALM 0 0 0 0 1016.5 - 0.0
20/07:00pm 16.8 15.3 4.8 45 5.8 NE 2 6 1 3 1016.3 - 0.0
20/06:30pm 17.2 14.7 4.5 43 6.1 NE 7 9 4 5 1016.1 - 0.0
20/06:00pm 17.9 15.5 4.5 41 6.4 NNW 6 7 3 4 1015.9 1016.6 0.0
20/05:30pm 18.2 15.2 4.0 39 6.8 N 9 13 5 7 1015.6 - 0.0
20/05:00pm 18.8 15.4 3.8 37 7.2 NNW 11 20 6 11 1015.5 - 0.0
20/04:30pm 19.7 16.0 4.2 36 7.5 WNW 13 19 7 10 1015.4 - 0.0
20/04:00pm 18.6 14.8 4.0 38 7.0 WNW 13 19 7 10 1015.4 - 0.0
20/03:30pm 18.6 15.2 4.0 38 7.0 NW 11 17 6 9 1015.4 - 0.0
20/03:00pm 20.0 16.2 4.1 35 7.7 NW 13 24 7 13 1015.3 1016.0 0.0
20/02:30pm 17.9 14.5 3.8 39 6.7 W 11 24 6 13 1015.5 - 0.0
20/02:00pm 18.3 14.0 3.4 37 7.0 NW 15 22 8 12 1015.6 - 0.0
20/01:30pm 17.2 12.6 3.5 40 6.4 NNW 17 26 9 14 1015.8 - 0.0
20/01:00pm 16.5 12.7 3.9 43 5.9 NW 13 24 7 13 1016.0 - 0.0
20/12:30pm 16.5 12.4 4.2 44 5.8 NW 15 22 8 12 1016.5 - 0.0
20/12:00pm 16.0 11.7 3.1 42 5.9 NW 15 26 8 14 1017.0 1017.7 0.0
20/11:30am 15.5 12.1 3.9 46 5.4 NW 11 20 6 11 1017.5 - 0.0
20/11:00am 14.6 10.5 4.3 50 4.8 NNW 15 24 8 13 1017.6 - 0.0
20/10:30am 14.1 10.8 4.7 53 4.4 N 11 15 6 8 1017.7 - 0.0
20/10:00am 13.4 9.3 4.3 54 4.2 NNW 15 19 8 10 1017.9 - 0.0
20/09:30am 13.0 9.3 4.4 56 4.0 NNW 13 19 7 10 1018.0 - 0.0
20/09:00am 11.9 8.6 4.4 60 3.4 NNW 11 17 6 9 1018.1 1018.7 0.0
20/08:30am 11.3 8.4 4.5 63 3.1 N 9 13 5 7 1018.0 - 0.0
20/08:00am 11.0 8.5 4.5 64 3.0 N 7 13 4 7 1017.6 - 0.0
20/07:30am 10.9 8.3 4.4 64 3.0 N 7 9 4 5 1017.2 - 0.0
20/07:00am 11.0 8.4 4.2 63 3.1 NNW 7 11 4 6 1016.9 - 0.0
20/06:30am 11.1 8.1 4.3 63 3.1 NNW 9 13 5 7 1016.7 - 0.0
20/06:00am 11.2 8.3 4.4 63 3.1 NNW 9 13 5 7 1016.6 1017.3 0.0
20/05:30am 11.2 8.3 4.4 63 3.1 NNW 9 13 5 7 1016.5 - 0.0
20/05:00am 11.2 8.3 4.9 65 2.9 NNW 9 11 5 6 1016.3 - 0.0
20/04:30am 11.0 8.6 5.3 68 2.6 NNW 7 9 4 5 1016.2 - 0.0
20/04:00am 10.9 8.5 5.2 68 2.6 NNW 7 9 4 5 1016.1 - 0.0
20/03:30am 11.0 8.2 5.3 68 2.6 N 9 13 5 7 1016.2 - 0.0
20/03:00am 11.2 9.0 6.3 72 2.3 E 7 9 4 5 1016.1 1016.8 0.0
20/02:30am 11.1 8.9 6.0 71 2.4 ESE 7 9 4 5 1016.3 - 0.0
20/02:00am 11.0 8.8 5.3 68 2.6 ESE 6 7 3 4 1016.5 - 0.0
20/01:30am 11.1 9.6 5.0 66 2.8 SW 2 7 1 4 1016.6 - 0.0
20/01:00am 11.0 10.0 5.5 69 2.6 CALM 0 0 0 0 1016.8 - 0.0
20/12:30am 11.3 10.3 5.4 67 2.8 CALM 0 0 0 0 1016.8 - 0.0
20/12:00am 11.4 10.2 4.4 62 3.2 SW 0 0 0 0 1017.0 1017.7 0.0
 
Date/Time
EST
Temp
°C
App
Temp
°C
Dew
Point
Rel
Hum
%
Delta-T
°C
Wind Press
QNH
hPa
Press
MSL
hPa
Rain
since 9 am
mm
Dir
 
Spd
km/h
Gust
km/h
Spd
kts
Gust
kts
19/11:30pm 12.0 9.5 4.0 58 3.6 SW 6 6 3 3 1017.1 - 0.0
19/11:00pm 11.8 10.1 3.8 58 3.6 NW 2 7 1 4 1017.2 - 0.0
19/10:30pm 12.0 9.9 3.8 57 3.7 WSW 4 7 2 4 1017.5 - 0.0
19/10:00pm 12.1 10.6 3.1 54 4.0 CALM 0 0 0 0 1017.7 - 0.0
19/09:30pm 12.1 9.9 3.3 55 3.9 W 4 7 2 4 1017.9 - 0.0
19/09:00pm 11.8 9.9 4.8 62 3.2 WSW 4 6 2 3 1017.9 1018.5 0.0
19/08:30pm 11.8 9.4 4.1 59 3.5 WSW 6 7 3 4 1018.0 - 0.0
19/08:00pm 12.6 10.5 3.8 55 4.0 WSW 4 6 2 3 1018.0 - 0.0
19/07:30pm 12.5 10.0 3.7 55 4.0 WSW 6 9 3 5 1018.1 - 0.0
19/07:00pm 12.8 10.3 3.7 54 4.1 WSW 6 7 3 4 1018.1 - 0.0
19/06:30pm 13.0 10.4 3.4 52 4.3 WSW 6 9 3 5 1018.0 - 0.0
19/06:00pm 13.3 10.7 3.1 50 4.6 W 6 7 3 4 1017.9 1018.5 0.0
19/05:30pm 13.6 11.0 3.1 49 4.7 SW 6 9 3 5 1017.9 - 0.0
19/05:00pm 13.8 11.1 3.6 50 4.7 SW 7 11 4 6 1017.9 - 0.0
19/04:30pm 14.0 11.2 3.2 48 4.9 SW 7 11 4 6 1018.0 - 0.0
19/04:00pm 14.3 11.2 3.7 49 4.9 WSW 9 15 5 8 1018.1 - 0.0
19/03:30pm 14.0 10.9 3.5 49 4.8 WSW 9 15 5 8 1018.2 - 0.0
19/03:00pm 14.1 11.3 3.3 48 4.9 SSW 7 13 4 7 1018.4 1019.0 0.0
19/02:30pm 14.0 11.3 3.8 50 4.7 SSW 7 17 4 9 1018.5 - 0.0
19/02:00pm 14.0 10.9 3.8 50 4.7 W 9 15 5 8 1018.6 - 0.0
19/01:30pm 14.1 11.6 3.6 49 4.8 SW 6 19 3 10 1018.9 - 0.0
19/01:00pm 13.7 10.6 3.8 51 4.5 SW 9 13 5 7 1019.5 - 0.0
19/12:30pm 13.2 9.9 4.4 55 4.1 SW 11 13 6 7 1019.9 - 0.0
19/12:00pm 13.6 10.7 4.5 54 4.2 WNW 9 15 5 8 1020.4 1021.1 0.0
19/11:00am 13.0 10.0 4.2 55 4.1 SW 9 13 5 7 1020.8 - 0.0
19/10:30am 12.7 9.8 4.7 58 3.7 SSW 9 17 5 9 1021.0 - 0.0
19/10:00am 12.3 9.5 5.2 62 3.3 W 9 17 5 9 1021.3 - 0.0
19/09:30am 12.0 9.7 5.9 66 2.9 SW 7 11 4 6 1021.2 - 0.0
19/09:00am 11.6 9.6 6.3 70 2.5 NW 6 9 3 5 1021.1 1021.8 0.0
19/08:30am 10.8 8.9 6.7 76 2.0 W 6 7 3 4 1020.9 - 0.0
19/08:00am 10.0 9.2 6.7 80 1.6 CALM 0 0 0 0 1020.7 - 0.0
19/07:30am 9.6 8.0 6.5 81 1.5 WNW 4 6 2 3 1020.5 - 0.0
19/07:00am 9.4 7.4 6.1 80 1.5 W 6 7 3 4 1020.2 - 0.0
19/06:30am 9.2 7.0 6.1 81 1.4 W 7 11 4 6 1020.1 - 0.0
19/06:00am 8.9 6.7 6.2 83 1.3 W 7 9 4 5 1019.9 1020.6 0.0
19/05:30am 9.0 7.4 6.3 83 1.3 WSW 4 7 2 4 1019.7 - 0.0
19/05:00am 9.3 7.6 6.0 80 1.5 SW 4 6 2 3 1019.4 - 0.0
19/04:30am 9.2 8.3 6.1 81 1.4 CALM 0 0 0 0 1019.4 - 0.0
19/04:00am 9.0 7.3 5.7 80 1.5 WSW 4 7 2 4 1019.6 - 0.0
19/03:30am 9.1 7.8 5.8 80 1.5 WNW 2 7 1 4 1019.6 - 0.0
19/03:00am 8.5 6.2 5.6 82 1.3 W 7 9 4 5 1019.8 1020.5 0.0
19/02:30am 8.2 6.0 5.5 83 1.2 W 6 7 3 4 1019.9 - 0.0
19/02:00am 8.3 5.9 5.2 81 1.4 W 7 9 4 5 1020.1 - 0.0
19/01:30am 9.2 6.7 5.0 75 1.9 SW 7 13 4 7 1020.2 - 0.0
19/01:00am 9.7 7.1 5.9 77 1.8 S 9 13 5 7 1020.3 - 0.0
19/12:30am 10.5 7.1 6.1 74 2.1 S 13 19 7 10 1020.3 - 0.0
19/12:00am 9.9 7.2 5.5 74 2.0 S 9 13 5 7 1020.1 1020.8 0.0
 
Date/Time
EST
Temp
°C
App
Temp
°C
Dew
Point
Rel
Hum
%
Delta-T
°C
Wind Press
QNH
hPa
Press
MSL
hPa
Rain
since 9 am
mm
Dir
 
Spd
km/h
Gust
km/h
Spd
kts
Gust
kts
18/11:30pm 9.0 6.2 5.0 76 1.8 SSW 9 11 5 6 1020.4 - 0.0
18/11:00pm 8.0 5.1 4.4 78 1.6 SSW 9 11 5 6 1020.7 - 0.0
18/10:30pm 8.0 5.1 4.6 79 1.5 SW 9 11 5 6 1020.8 - 0.0
18/10:00pm 9.1 6.5 4.3 72 2.1 SSW 7 9 4 5 1020.7 - 0.0
18/09:30pm 10.0 7.1 4.4 68 2.5 S 9 13 5 7 1020.7 - 0.0
18/09:00pm 10.1 7.1 4.0 66 2.7 S 9 13 5 7 1020.4 1021.1 0.0
18/08:30pm 10.4 7.4 3.9 64 2.9 S 9 13 5 7 1020.2 - 0.0
18/08:00pm 11.1 8.1 3.9 61 3.2 S 9 15 5 8 1020.2 - 0.0
18/07:30pm 11.8 8.0 4.1 59 3.5 S 13 19 7 10 1020.0 - 0.0
18/07:00pm 12.4 9.1 4.4 58 3.7 S 11 20 6 11 1019.7 - 0.0
18/06:30pm 12.9 9.6 4.6 57 3.9 S 11 17 6 9 1019.4 - 0.0
18/06:00pm 13.7 9.2 4.0 52 4.5 S 17 26 9 14 1019.2 1019.9 0.0
18/05:30pm 14.4 8.9 4.1 50 4.8 S 22 32 12 17 1018.7 - 0.0
18/05:00pm 16.0 9.5 2.4 40 6.2 S 26 39 14 21 1018.3 - 0.0
18/04:30pm 16.5 11.1 1.0 35 6.9 SW 19 30 10 16 1018.1 - 0.0
18/04:00pm 15.9 10.4 1.6 38 6.4 S 20 35 11 19 1017.7 - 0.0
18/03:30pm 16.8 11.6 3.8 42 6.1 S 20 35 11 19 1017.6 - 0.0
18/03:00pm 16.7 12.2 4.4 44 5.8 S 17 26 9 14 1017.4 1018.1 0.0
18/02:30pm 16.7 11.8 5.3 47 5.5 S 20 32 11 17 1017.3 - 0.0
18/02:00pm 16.5 10.6 3.9 43 5.9 S 24 35 13 19 1017.0 - 0.0
18/01:30pm 17.2 11.3 3.8 41 6.3 S 24 35 13 19 1017.1 - 0.0
18/01:00pm 17.0 9.7 2.2 37 6.8 SW 30 44 16 24 1017.1 - 0.0
18/12:30pm 16.5 11.9 5.5 48 5.3 SSW 19 35 10 19 1017.2 - 0.0
18/12:00pm 15.8 11.1 6.0 52 4.8 SSW 20 32 11 17 1017.4 1018.1 0.0
18/11:30am 15.6 11.1 7.1 57 4.2 S 20 28 11 15 1017.4 - 0.0
18/11:00am 14.8 10.8 9.0 68 3.0 S 20 32 11 17 1017.2 - 0.0
18/10:30am 15.1 11.6 10.9 76 2.3 S 20 32 11 17 1017.0 - 0.0
18/10:00am 14.6 12.1 12.3 86 1.3 SW 17 24 9 13 1016.7 - 0.0
18/09:30am 15.9 12.5 11.3 74 2.5 W 20 35 11 19 1016.3 - 0.0
18/09:00am 16.1 14.0 11.1 72 2.7 NNW 13 19 7 10 1016.1 1016.8 0.2
18/08:30am 15.3 13.2 11.3 77 2.2 NW 13 19 7 10 1016.3 - 0.2
18/08:00am 14.1 12.6 11.8 86 1.2 NW 11 17 6 9 1015.8 - 0.2
18/07:30am 13.2 12.3 10.7 85 1.3 WNW 6 13 3 7 1015.9 - 0.0
18/07:00am 13.1 11.8 9.2 77 2.0 NNW 6 9 3 5 1015.5 - 0.0
18/06:30am 12.8 11.0 9.3 79 1.8 NNW 9 13 5 7 1015.3 - 0.0
18/06:00am 12.2 11.1 9.8 85 1.2 E 6 7 3 4 1015.3 1016.0 0.0
18/05:30am 12.5 11.5 10.2 86 1.2 E 6 7 3 4 1015.4 - 0.0
18/05:00am 12.6 12.0 10.5 87 1.1 E 4 6 2 3 1015.3 - 0.0
18/04:30am 12.6 11.7 10.7 88 1.0 E 6 7 3 4 1015.5 - 0.0
18/04:00am 12.5 11.5 10.9 90 0.8 ENE 7 7 4 4 1015.7 - 0.0
18/03:30am 12.4 11.5 10.8 90 0.8 E 6 7 3 4 1015.6 - 0.0
18/03:00am 12.0 10.9 10.7 92 0.7 E 7 7 4 4 1015.7 1016.4 0.0
18/02:30am 11.4 10.3 10.5 94 0.5 E 7 9 4 5 1016.0 - 0.0
18/02:00am 10.2 8.7 9.3 94 0.5 ESE 7 7 4 4 1016.2 - 0.0
18/01:30am 10.0 8.5 9.1 94 0.5 ESE 7 9 4 5 1016.4 - 0.0
18/01:00am 10.6 9.2 9.7 94 0.5 SW 7 9 4 5 1016.7 - 0.0
18/12:30am 10.2 9.9 8.6 90 0.8 CALM 0 7 0 4 1016.9 - 0.0
18/12:00am 11.1 11.0 9.4 89 0.9 CALM 0 4 0 2 1017.3 1018.0 0.0
 
Date/Time
EST
Temp
°C
App
Temp
°C
Dew
Point
Rel
Hum
%
Delta-T
°C
Wind Press
QNH
hPa
Press
MSL
hPa
Rain
since 9 am
mm
Dir
 
Spd
km/h
Gust
km/h
Spd
kts
Gust
kts
17/11:30pm 12.3 11.6 9.9 85 1.2 ESE 4 7 2 4 1017.7 - 0.0

Other Formats:

Comma delimited format used in spreadsheet applications
http://www.bom.gov.au/fwo/IDV60801/IDV60801.94836.axf

JavaScript Object Notation format (JSON) in row-major order
http://www.bom.gov.au/fwo/IDV60801/IDV60801.94836.json